METAR Data
IDs: Format: Raw Decoded Include TAF

Data at: 0726 UTC 18 Sep 2021

YMTG 180713Z AUTO 28015G25KT 9999 // SCT034 BKN058 12/07 Q1016